Waverly, MN (55390)

1:15 PM CDT on April 19, 2015 (GMT -0500)
KMNHOWAR2 | | Change Station
CLOSE
Current Station
Personal Weather Station
Location: Howard Lake, MN
Elevation: 1014 ft
Nearby Weather Stations

Elev 1014 ft 45.06 °N, 94.08 °W | Updated 8 minutes ago

Overcast
Overcast
54.2 °F
Feels Like 54.2 °F
N
3.0
Wind Variable Wind from NNW

Today
High -- | Low -- °F
--% Chance of Precip.
Yesterday
High -- | Low -- °F
Precip. -- in
6:24 AM 8:06 PM
New Moon, 1% visible
Pressure 29.66 in
Visibility 10.0 miles
Clouds Mostly Cloudy 1200 ft
Overcast 1800 ft
Dew Point 50 °F
Humidity 85%
Rainfall 0.00 in
Snow Depth Not available.
UV 1.3 out of 12
Pollen 2.50 out of 12
Air Quality Not available.
Flu Activity Local Activity
METAR KCFE 191754Z AUTO 26013KT 10SM BKN012 OVC018 12/09 A2966 RMK AO2 T01180085

More Conditions Fewer Conditions

Pressure 29.66 in
Visibility 10.0 miles
Clouds Mostly Cloudy 1200 ft
Overcast 1800 ft
Dew Point 50 °F
Humidity 85%
Rainfall 0.00 in
Snow Depth Not available.
UV 1.3 out of 12
Pollen 2.50 out of 12
Air Quality Not available.
Flu Activity Local Activity
METAR KCFE 191754Z AUTO 26013KT 10SM BKN012 OVC018 12/09 A2966 RMK AO2 T01180085

More Conditions Fewer Conditions

10-Day Weather Forecast

Almanac

Astronomy

Apr. 19, 2015 Rise Set
Actual Time
Civil Twilight
Nautical Twilight
Astronomical Twilight
Moon
Length of Visible Light
Length of Day
Tomorrow will be .
, % of the Moon is Illuminated

Today's Extremes

State Highs State Lows

Community

WunderPhotos

Upload Photos

1,814,894 photos uploaded!

WunderBlogs® & News

Nearby

Air Quality

  Air Quality AQ Index Pollutant
Not available.

Snow Depth

Station Depth Elevation

Earthquake Activity

City Distance Mag. Time & Date
Minimum magnitude displayed is 2.5.

Coastal Water Temperatures

Place Temperature

Stations

Nearby Weather Stations

Station Location Temp. Windchill Dew Point Humidity Wind Precip. Elev Updated Type